sensor_id;sensor_type;location;lat;lon;timestamp;P1;durP1;ratioP1;P2;durP2;ratioP2
5428;SDS011;2737;52.386;9.980;2023-08-20T00:00:50;21.10;;;14.80;;
5428;SDS011;2737;52.386;9.980;2023-08-20T00:03:17;18.55;;;12.98;;
5428;SDS011;2737;52.386;9.980;2023-08-20T00:05:45;22.27;;;13.00;;
5428;SDS011;2737;52.386;9.980;2023-08-20T00:08:12;22.65;;;15.20;;
5428;SDS011;2737;52.386;9.980;2023-08-20T00:10:39;18.25;;;14.18;;
5428;SDS011;2737;52.386;9.980;2023-08-20T00:13:06;21.42;;;14.60;;
5428;SDS011;2737;52.386;9.980;2023-08-20T00:15:34;24.13;;;14.95;;
5428;SDS011;2737;52.386;9.980;2023-08-20T00:18:02;20.30;;;14.00;;
5428;SDS011;2737;52.386;9.980;2023-08-20T00:20:30;20.88;;;13.10;;
5428;SDS011;2737;52.386;9.980;2023-08-20T00:22:58;22.33;;;14.75;;
5428;SDS011;2737;52.386;9.980;2023-08-20T00:25:26;18.88;;;13.73;;
5428;SDS011;2737;52.386;9.980;2023-08-20T00:27:53;28.50;;;15.07;;
5428;SDS011;2737;52.386;9.980;2023-08-20T00:30:20;19.48;;;13.15;;
5428;SDS011;2737;52.386;9.980;2023-08-20T00:32:49;21.23;;;12.90;;
5428;SDS011;2737;52.386;9.980;2023-08-20T00:35:16;22.23;;;13.68;;
5428;SDS011;2737;52.386;9.980;2023-08-20T00:37:43;22.73;;;13.52;;
5428;SDS011;2737;52.386;9.980;2023-08-20T00:40:11;22.48;;;14.25;;
5428;SDS011;2737;52.386;9.980;2023-08-20T00:42:38;22.90;;;14.45;;
5428;SDS011;2737;52.386;9.980;2023-08-20T00:45:05;21.88;;;13.80;;
5428;SDS011;2737;52.386;9.980;2023-08-20T00:47:33;26.07;;;15.07;;
5428;SDS011;2737;52.386;9.980;2023-08-20T00:50:03;22.33;;;14.75;;
5428;SDS011;2737;52.386;9.980;2023-08-20T00:52:32;24.67;;;13.70;;
5428;SDS011;2737;52.386;9.980;2023-08-20T00:55:00;21.63;;;13.45;;
5428;SDS011;2737;52.386;9.980;2023-08-20T00:57:32;24.80;;;13.33;;
5428;SDS011;2737;52.386;9.980;2023-08-20T01:00:00;25.30;;;14.00;;
5428;SDS011;2737;52.386;9.980;2023-08-20T01:02:29;23.20;;;14.60;;
5428;SDS011;2737;52.386;9.980;2023-08-20T01:04:56;26.07;;;14.23;;
5428;SDS011;2737;52.386;9.980;2023-08-20T01:07:27;24.13;;;14.30;;
5428;SDS011;2737;52.386;9.980;2023-08-20T01:10:04;21.73;;;14.57;;
5428;SDS011;2737;52.386;9.980;2023-08-20T01:12:39;19.90;;;13.80;;
5428;SDS011;2737;52.386;9.980;2023-08-20T01:15:08;17.30;;;13.33;;
5428;SDS011;2737;52.386;9.980;2023-08-20T01:17:39;23.10;;;14.45;;
5428;SDS011;2737;52.386;9.980;2023-08-20T01:20:06;21.70;;;12.60;;
5428;SDS011;2737;52.386;9.980;2023-08-20T01:22:40;22.33;;;13.30;;
5428;SDS011;2737;52.386;9.980;2023-08-20T01:25:24;21.13;;;12.77;;
5428;SDS011;2737;52.386;9.980;2023-08-20T01:28:05;29.47;;;13.80;;
5428;SDS011;2737;52.386;9.980;2023-08-20T01:30:46;25.90;;;12.33;;
5428;SDS011;2737;52.386;9.980;2023-08-20T01:33:13;19.77;;;12.67;;
5428;SDS011;2737;52.386;9.980;2023-08-20T01:35:41;24.50;;;13.10;;
5428;SDS011;2737;52.386;9.980;2023-08-20T01:38:08;23.50;;;13.50;;
5428;SDS011;2737;52.386;9.980;2023-08-20T01:40:35;18.70;;;12.47;;
5428;SDS011;2737;52.386;9.980;2023-08-20T01:43:02;21.13;;;11.80;;
5428;SDS011;2737;52.386;9.980;2023-08-20T01:45:30;19.33;;;11.95;;
5428;SDS011;2737;52.386;9.980;2023-08-20T01:47:57;26.17;;;13.00;;
5428;SDS011;2737;52.386;9.980;2023-08-20T01:50:24;16.40;;;11.33;;
5428;SDS011;2737;52.386;9.980;2023-08-20T01:52:51;16.00;;;10.68;;
5428;SDS011;2737;52.386;9.980;2023-08-20T01:55:18;24.37;;;12.53;;
5428;SDS011;2737;52.386;9.980;2023-08-20T01:57:46;16.83;;;11.55;;
5428;SDS011;2737;52.386;9.980;2023-08-20T02:00:13;18.77;;;11.00;;
5428;SDS011;2737;52.386;9.980;2023-08-20T02:02:42;18.53;;;10.97;;
5428;SDS011;2737;52.386;9.980;2023-08-20T02:05:09;19.63;;;10.37;;
5428;SDS011;2737;52.386;9.980;2023-08-20T02:07:36;19.30;;;11.07;;
5428;SDS011;2737;52.386;9.980;2023-08-20T02:10:04;18.77;;;10.37;;
5428;SDS011;2737;52.386;9.980;2023-08-20T02:12:31;18.37;;;10.90;;
5428;SDS011;2737;52.386;9.980;2023-08-20T02:14:58;16.43;;;10.10;;
5428;SDS011;2737;52.386;9.980;2023-08-20T02:17:25;15.03;;;9.20;;
5428;SDS011;2737;52.386;9.980;2023-08-20T02:19:54;19.60;;;11.20;;
5428;SDS011;2737;52.386;9.980;2023-08-20T02:22:21;16.63;;;10.00;;
5428;SDS011;2737;52.386;9.980;2023-08-20T02:24:48;13.30;;;8.80;;
5428;SDS011;2737;52.386;9.980;2023-08-20T02:27:15;20.90;;;10.77;;
5428;SDS011;2737;52.386;9.980;2023-08-20T02:29:42;18.40;;;10.80;;
5428;SDS011;2737;52.386;9.980;2023-08-20T02:32:10;15.33;;;9.20;;
5428;SDS011;2737;52.386;9.980;2023-08-20T02:34:37;12.25;;;8.48;;
5428;SDS011;2737;52.386;9.980;2023-08-20T02:37:06;17.23;;;9.50;;
5428;SDS011;2737;52.386;9.980;2023-08-20T02:39:33;13.47;;;9.33;;
5428;SDS011;2737;52.386;9.980;2023-08-20T02:42:00;16.63;;;10.77;;
5428;SDS011;2737;52.386;9.980;2023-08-20T02:44:27;13.30;;;10.50;;
5428;SDS011;2737;52.386;9.980;2023-08-20T02:46:54;17.92;;;9.75;;
5428;SDS011;2737;52.386;9.980;2023-08-20T02:49:21;14.77;;;9.90;;
5428;SDS011;2737;52.386;9.980;2023-08-20T02:51:48;12.37;;;9.03;;
5428;SDS011;2737;52.386;9.980;2023-08-20T02:54:16;19.10;;;10.67;;
5428;SDS011;2737;52.386;9.980;2023-08-20T02:56:43;16.20;;;10.57;;
5428;SDS011;2737;52.386;9.980;2023-08-20T02:59:10;13.70;;;9.77;;
5428;SDS011;2737;52.386;9.980;2023-08-20T03:01:37;12.95;;;9.15;;
5428;SDS011;2737;52.386;9.980;2023-08-20T03:04:04;13.73;;;9.40;;
5428;SDS011;2737;52.386;9.980;2023-08-20T03:06:32;13.03;;;9.60;;
5428;SDS011;2737;52.386;9.980;2023-08-20T03:08:59;19.80;;;9.70;;
5428;SDS011;2737;52.386;9.980;2023-08-20T03:11:27;18.35;;;9.98;;
5428;SDS011;2737;52.386;9.980;2023-08-20T03:13:54;12.00;;;8.77;;
5428;SDS011;2737;52.386;9.980;2023-08-20T03:16:21;10.17;;;7.87;;
5428;SDS011;2737;52.386;9.980;2023-08-20T03:18:48;14.90;;;9.17;;
5428;SDS011;2737;52.386;9.980;2023-08-20T03:21:15;18.70;;;8.90;;
5428;SDS011;2737;52.386;9.980;2023-08-20T03:23:42;16.00;;;10.40;;
5428;SDS011;2737;52.386;9.980;2023-08-20T03:26:09;18.10;;;9.33;;
5428;SDS011;2737;52.386;9.980;2023-08-20T03:28:37;16.33;;;9.90;;
5428;SDS011;2737;52.386;9.980;2023-08-20T03:31:04;14.30;;;9.80;;
5428;SDS011;2737;52.386;9.980;2023-08-20T03:33:31;16.83;;;9.03;;
5428;SDS011;2737;52.386;9.980;2023-08-20T03:35:58;16.67;;;10.53;;
5428;SDS011;2737;52.386;9.980;2023-08-20T03:38:25;12.33;;;7.57;;
5428;SDS011;2737;52.386;9.980;2023-08-20T03:40:54;16.63;;;8.83;;
5428;SDS011;2737;52.386;9.980;2023-08-20T03:43:21;12.50;;;8.80;;
5428;SDS011;2737;52.386;9.980;2023-08-20T03:45:50;15.50;;;8.53;;
5428;SDS011;2737;52.386;9.980;2023-08-20T03:48:17;11.20;;;8.60;;
5428;SDS011;2737;52.386;9.980;2023-08-20T03:50:45;14.57;;;8.37;;
5428;SDS011;2737;52.386;9.980;2023-08-20T03:53:12;15.40;;;8.33;;
5428;SDS011;2737;52.386;9.980;2023-08-20T03:55:39;19.83;;;9.83;;
5428;SDS011;2737;52.386;9.980;2023-08-20T03:58:06;13.03;;;8.40;;
5428;SDS011;2737;52.386;9.980;2023-08-20T04:00:34;13.17;;;8.13;;
5428;SDS011;2737;52.386;9.980;2023-08-20T04:03:02;13.30;;;7.90;;
5428;SDS011;2737;52.386;9.980;2023-08-20T04:05:29;12.03;;;7.77;;
5428;SDS011;2737;52.386;9.980;2023-08-20T04:08:02;11.33;;;7.30;;
5428;SDS011;2737;52.386;9.980;2023-08-20T04:10:29;12.43;;;7.73;;
5428;SDS011;2737;52.386;9.980;2023-08-20T04:12:57;15.70;;;7.80;;
5428;SDS011;2737;52.386;9.980;2023-08-20T04:15:24;15.87;;;8.07;;
5428;SDS011;2737;52.386;9.980;2023-08-20T04:17:51;15.40;;;7.33;;
5428;SDS011;2737;52.386;9.980;2023-08-20T04:20:20;12.00;;;7.57;;
5428;SDS011;2737;52.386;9.980;2023-08-20T04:22:48;11.73;;;7.37;;
5428;SDS011;2737;52.386;9.980;2023-08-20T04:25:15;12.10;;;7.60;;
5428;SDS011;2737;52.386;9.980;2023-08-20T04:27:42;12.63;;;7.43;;
5428;SDS011;2737;52.386;9.980;2023-08-20T04:30:10;11.30;;;8.00;;
5428;SDS011;2737;52.386;9.980;2023-08-20T04:32:37;11.70;;;7.43;;
5428;SDS011;2737;52.386;9.980;2023-08-20T04:35:04;12.40;;;7.47;;
5428;SDS011;2737;52.386;9.980;2023-08-20T04:37:33;12.60;;;6.90;;
5428;SDS011;2737;52.386;9.980;2023-08-20T04:40:00;14.00;;;7.67;;
5428;SDS011;2737;52.386;9.980;2023-08-20T04:42:29;13.97;;;7.23;;
5428;SDS011;2737;52.386;9.980;2023-08-20T04:44:56;13.90;;;7.93;;
5428;SDS011;2737;52.386;9.980;2023-08-20T04:47:23;11.33;;;7.73;;
5428;SDS011;2737;52.386;9.980;2023-08-20T04:49:50;15.70;;;7.30;;
5428;SDS011;2737;52.386;9.980;2023-08-20T04:52:17;14.13;;;7.83;;
5428;SDS011;2737;52.386;9.980;2023-08-20T04:54:46;13.83;;;7.73;;
5428;SDS011;2737;52.386;9.980;2023-08-20T04:57:13;18.03;;;7.97;;
5428;SDS011;2737;52.386;9.980;2023-08-20T04:59:41;10.30;;;7.80;;
5428;SDS011;2737;52.386;9.980;2023-08-20T05:02:10;12.80;;;8.20;;
5428;SDS011;2737;52.386;9.980;2023-08-20T05:04:37;12.47;;;8.00;;
5428;SDS011;2737;52.386;9.980;2023-08-20T05:07:04;15.20;;;9.33;;
5428;SDS011;2737;52.386;9.980;2023-08-20T05:09:32;12.50;;;8.37;;
5428;SDS011;2737;52.386;9.980;2023-08-20T05:12:01;16.97;;;9.73;;
5428;SDS011;2737;52.386;9.980;2023-08-20T05:14:28;16.60;;;9.50;;
5428;SDS011;2737;52.386;9.980;2023-08-20T05:16:56;14.90;;;8.70;;
5428;SDS011;2737;52.386;9.980;2023-08-20T05:19:23;15.23;;;9.23;;
5428;SDS011;2737;52.386;9.980;2023-08-20T05:21:50;14.27;;;9.40;;
5428;SDS011;2737;52.386;9.980;2023-08-20T05:24:17;16.20;;;8.63;;
5428;SDS011;2737;52.386;9.980;2023-08-20T05:26:45;14.73;;;8.30;;
5428;SDS011;2737;52.386;9.980;2023-08-20T05:29:13;10.17;;;7.50;;
5428;SDS011;2737;52.386;9.980;2023-08-20T05:31:40;12.27;;;8.33;;
5428;SDS011;2737;52.386;9.980;2023-08-20T05:34:07;14.43;;;8.10;;
5428;SDS011;2737;52.386;9.980;2023-08-20T05:36:34;11.53;;;7.70;;
5428;SDS011;2737;52.386;9.980;2023-08-20T05:39:01;13.47;;;9.13;;
5428;SDS011;2737;52.386;9.980;2023-08-20T05:41:28;14.90;;;7.30;;
5428;SDS011;2737;52.386;9.980;2023-08-20T05:43:55;11.67;;;7.40;;
5428;SDS011;2737;52.386;9.980;2023-08-20T05:46:23;14.10;;;8.77;;
5428;SDS011;2737;52.386;9.980;2023-08-20T05:48:50;12.03;;;6.90;;
5428;SDS011;2737;52.386;9.980;2023-08-20T05:51:17;13.97;;;7.07;;
5428;SDS011;2737;52.386;9.980;2023-08-20T05:53:44;11.03;;;7.57;;
5428;SDS011;2737;52.386;9.980;2023-08-20T05:56:11;10.27;;;6.70;;
5428;SDS011;2737;52.386;9.980;2023-08-20T05:58:38;11.50;;;6.47;;
5428;SDS011;2737;52.386;9.980;2023-08-20T06:01:05;11.13;;;7.10;;
5428;SDS011;2737;52.386;9.980;2023-08-20T06:03:34;14.93;;;8.50;;
5428;SDS011;2737;52.386;9.980;2023-08-20T06:06:01;16.23;;;7.90;;
5428;SDS011;2737;52.386;9.980;2023-08-20T06:08:28;10.03;;;5.80;;
5428;SDS011;2737;52.386;9.980;2023-08-20T06:10:55;10.90;;;7.10;;
5428;SDS011;2737;52.386;9.980;2023-08-20T06:13:22;12.40;;;6.43;;
5428;SDS011;2737;52.386;9.980;2023-08-20T06:15:49;10.27;;;6.40;;
5428;SDS011;2737;52.386;9.980;2023-08-20T06:18:16;13.47;;;7.17;;
5428;SDS011;2737;52.386;9.980;2023-08-20T06:20:44;11.37;;;6.57;;
5428;SDS011;2737;52.386;9.980;2023-08-20T06:23:11;15.93;;;7.57;;
5428;SDS011;2737;52.386;9.980;2023-08-20T06:25:38;14.40;;;6.30;;
5428;SDS011;2737;52.386;9.980;2023-08-20T06:28:05;11.77;;;7.43;;
5428;SDS011;2737;52.386;9.980;2023-08-20T06:30:32;15.17;;;5.80;;
5428;SDS011;2737;52.386;9.980;2023-08-20T06:32:59;14.13;;;6.10;;
5428;SDS011;2737;52.386;9.980;2023-08-20T06:35:26;12.75;;;6.28;;
5428;SDS011;2737;52.386;9.980;2023-08-20T06:37:54;12.82;;;5.88;;
5428;SDS011;2737;52.386;9.980;2023-08-20T06:40:21;8.03;;;5.03;;
5428;SDS011;2737;52.386;9.980;2023-08-20T06:42:48;13.00;;;5.90;;
5428;SDS011;2737;52.386;9.980;2023-08-20T06:45:16;10.73;;;5.70;;
5428;SDS011;2737;52.386;9.980;2023-08-20T06:47:43;9.75;;;5.65;;
5428;SDS011;2737;52.386;9.980;2023-08-20T06:50:09;8.23;;;4.45;;
5428;SDS011;2737;52.386;9.980;2023-08-20T06:52:37;8.95;;;5.10;;
5428;SDS011;2737;52.386;9.980;2023-08-20T06:55:05;9.10;;;4.90;;
5428;SDS011;2737;52.386;9.980;2023-08-20T06:57:33;7.28;;;5.00;;
5428;SDS011;2737;52.386;9.980;2023-08-20T07:00:00;7.68;;;4.43;;
5428;SDS011;2737;52.386;9.980;2023-08-20T07:02:27;6.10;;;3.90;;
5428;SDS011;2737;52.386;9.980;2023-08-20T07:04:54;7.80;;;3.70;;
5428;SDS011;2737;52.386;9.980;2023-08-20T07:07:21;12.52;;;3.67;;
5428;SDS011;2737;52.386;9.980;2023-08-20T07:09:48;11.00;;;3.97;;
5428;SDS011;2737;52.386;9.980;2023-08-20T07:12:17;9.85;;;3.92;;
5428;SDS011;2737;52.386;9.980;2023-08-20T07:14:44;7.15;;;3.97;;
5428;SDS011;2737;52.386;9.980;2023-08-20T07:17:11;7.18;;;3.90;;
5428;SDS011;2737;52.386;9.980;2023-08-20T07:19:38;5.88;;;3.42;;
5428;SDS011;2737;52.386;9.980;2023-08-20T07:22:05;6.93;;;3.47;;
5428;SDS011;2737;52.386;9.980;2023-08-20T07:24:32;6.20;;;3.10;;
5428;SDS011;2737;52.386;9.980;2023-08-20T07:27:00;6.07;;;3.40;;
5428;SDS011;2737;52.386;9.980;2023-08-20T07:29:30;6.18;;;3.33;;
5428;SDS011;2737;52.386;9.980;2023-08-20T07:31:57;5.70;;;3.45;;
5428;SDS011;2737;52.386;9.980;2023-08-20T07:34:28;6.38;;;3.05;;
5428;SDS011;2737;52.386;9.980;2023-08-20T07:36:55;6.45;;;3.30;;
5428;SDS011;2737;52.386;9.980;2023-08-20T07:39:23;5.45;;;3.53;;
5428;SDS011;2737;52.386;9.980;2023-08-20T07:41:50;7.75;;;3.58;;
5428;SDS011;2737;52.386;9.980;2023-08-20T07:44:17;9.02;;;4.00;;
5428;SDS011;2737;52.386;9.980;2023-08-20T07:46:45;3.95;;;2.90;;
5428;SDS011;2737;52.386;9.980;2023-08-20T07:49:12;6.97;;;3.05;;
5428;SDS011;2737;52.386;9.980;2023-08-20T07:51:39;5.30;;;3.10;;
5428;SDS011;2737;52.386;9.980;2023-08-20T07:54:06;6.88;;;3.42;;
5428;SDS011;2737;52.386;9.980;2023-08-20T07:56:33;5.10;;;3.40;;
5428;SDS011;2737;52.386;9.980;2023-08-20T07:59:00;5.30;;;3.05;;
5428;SDS011;2737;52.386;9.980;2023-08-20T08:01:27;7.25;;;3.03;;
5428;SDS011;2737;52.386;9.980;2023-08-20T08:03:56;6.10;;;3.00;;
5428;SDS011;2737;52.386;9.980;2023-08-20T08:06:23;12.55;;;3.90;;
5428;SDS011;2737;52.386;9.980;2023-08-20T08:08:50;10.90;;;3.85;;
5428;SDS011;2737;52.386;9.980;2023-08-20T08:11:17;7.70;;;3.45;;
5428;SDS011;2737;52.386;9.980;2023-08-20T08:13:44;10.77;;;3.20;;
5428;SDS011;2737;52.386;9.980;2023-08-20T08:16:11;6.00;;;3.25;;
5428;SDS011;2737;52.386;9.980;2023-08-20T08:18:38;4.32;;;3.28;;
5428;SDS011;2737;52.386;9.980;2023-08-20T08:21:06;11.77;;;3.30;;
5428;SDS011;2737;52.386;9.980;2023-08-20T08:23:33;4.43;;;3.13;;
5428;SDS011;2737;52.386;9.980;2023-08-20T08:26:00;5.22;;;3.28;;
5428;SDS011;2737;52.386;9.980;2023-08-20T08:28:27;5.32;;;3.45;;
5428;SDS011;2737;52.386;9.980;2023-08-20T08:30:54;5.40;;;2.90;;
5428;SDS011;2737;52.386;9.980;2023-08-20T08:33:21;8.85;;;2.70;;
5428;SDS011;2737;52.386;9.980;2023-08-20T08:35:49;11.63;;;3.33;;
5428;SDS011;2737;52.386;9.980;2023-08-20T08:38:17;6.35;;;2.47;;
5428;SDS011;2737;52.386;9.980;2023-08-20T08:40:44;4.80;;;2.90;;
5428;SDS011;2737;52.386;9.980;2023-08-20T08:43:13;5.90;;;2.97;;
5428;SDS011;2737;52.386;9.980;2023-08-20T08:45:42;5.65;;;3.58;;
5428;SDS011;2737;52.386;9.980;2023-08-20T08:48:13;5.03;;;2.63;;
5428;SDS011;2737;52.386;9.980;2023-08-20T08:50:41;4.30;;;2.67;;
5428;SDS011;2737;52.386;9.980;2023-08-20T08:53:08;5.07;;;3.05;;
5428;SDS011;2737;52.386;9.980;2023-08-20T08:55:37;7.90;;;2.72;;
5428;SDS011;2737;52.386;9.980;2023-08-20T08:58:04;4.25;;;2.55;;
5428;SDS011;2737;52.386;9.980;2023-08-20T09:00:31;3.92;;;2.50;;
5428;SDS011;2737;52.386;9.980;2023-08-20T09:02:58;8.07;;;3.17;;
5428;SDS011;2737;52.386;9.980;2023-08-20T09:05:25;4.55;;;2.55;;
5428;SDS011;2737;52.386;9.980;2023-08-20T09:07:55;4.07;;;2.65;;
5428;SDS011;2737;52.386;9.980;2023-08-20T09:10:22;5.32;;;2.78;;
5428;SDS011;2737;52.386;9.980;2023-08-20T09:12:53;6.22;;;2.60;;
5428;SDS011;2737;52.386;9.980;2023-08-20T09:15:21;3.42;;;2.45;;
5428;SDS011;2737;52.386;9.980;2023-08-20T09:17:56;5.93;;;2.40;;
5428;SDS011;2737;52.386;9.980;2023-08-20T09:20:33;8.45;;;3.15;;
5428;SDS011;2737;52.386;9.980;2023-08-20T09:23:00;7.28;;;2.63;;
5428;SDS011;2737;52.386;9.980;2023-08-20T09:25:27;14.05;;;3.13;;
5428;SDS011;2737;52.386;9.980;2023-08-20T09:27:55;5.55;;;2.70;;
5428;SDS011;2737;52.386;9.980;2023-08-20T09:30:23;7.80;;;2.63;;
5428;SDS011;2737;52.386;9.980;2023-08-20T09:33:02;4.35;;;2.63;;
5428;SDS011;2737;52.386;9.980;2023-08-20T09:35:30;5.78;;;2.60;;
5428;SDS011;2737;52.386;9.980;2023-08-20T09:38:00;8.52;;;2.90;;
5428;SDS011;2737;52.386;9.980;2023-08-20T09:40:29;3.90;;;2.42;;
5428;SDS011;2737;52.386;9.980;2023-08-20T09:42:58;6.07;;;2.85;;
5428;SDS011;2737;52.386;9.980;2023-08-20T09:45:27;3.75;;;2.33;;
5428;SDS011;2737;52.386;9.980;2023-08-20T09:47:55;5.13;;;2.40;;
5428;SDS011;2737;52.386;9.980;2023-08-20T09:50:24;4.38;;;2.70;;
5428;SDS011;2737;52.386;9.980;2023-08-20T09:52:55;5.15;;;2.90;;
5428;SDS011;2737;52.386;9.980;2023-08-20T09:55:28;7.57;;;2.50;;
5428;SDS011;2737;52.386;9.980;2023-08-20T09:58:01;8.38;;;2.20;;
5428;SDS011;2737;52.386;9.980;2023-08-20T10:00:28;6.15;;;1.98;;
5428;SDS011;2737;52.386;9.980;2023-08-20T10:02:56;8.27;;;2.72;;
5428;SDS011;2737;52.386;9.980;2023-08-20T10:05:24;3.83;;;2.20;;
5428;SDS011;2737;52.386;9.980;2023-08-20T10:07:52;4.03;;;2.40;;
5428;SDS011;2737;52.386;9.980;2023-08-20T10:10:20;5.72;;;2.30;;
5428;SDS011;2737;52.386;9.980;2023-08-20T10:12:47;3.95;;;2.00;;
5428;SDS011;2737;52.386;9.980;2023-08-20T10:15:16;6.03;;;2.28;;
5428;SDS011;2737;52.386;9.980;2023-08-20T10:17:43;3.05;;;2.20;;
5428;SDS011;2737;52.386;9.980;2023-08-20T10:20:13;6.40;;;2.83;;
5428;SDS011;2737;52.386;9.980;2023-08-20T10:22:42;5.22;;;2.30;;
5428;SDS011;2737;52.386;9.980;2023-08-20T10:25:11;3.92;;;2.05;;
5428;SDS011;2737;52.386;9.980;2023-08-20T10:27:39;6.60;;;2.40;;
5428;SDS011;2737;52.386;9.980;2023-08-20T10:30:08;7.38;;;2.53;;
5428;SDS011;2737;52.386;9.980;2023-08-20T10:32:46;4.70;;;2.60;;
5428;SDS011;2737;52.386;9.980;2023-08-20T10:35:15;3.25;;;1.95;;
5428;SDS011;2737;52.386;9.980;2023-08-20T10:43:27;4.93;;;2.53;;
5428;SDS011;2737;52.386;9.980;2023-08-20T10:46:04;3.35;;;2.00;;
5428;SDS011;2737;52.386;9.980;2023-08-20T10:48:35;2.78;;;2.10;;
5428;SDS011;2737;52.386;9.980;2023-08-20T10:51:06;4.90;;;1.77;;
5428;SDS011;2737;52.386;9.980;2023-08-20T10:53:37;3.45;;;2.33;;
5428;SDS011;2737;52.386;9.980;2023-08-20T10:56:10;5.53;;;2.33;;
5428;SDS011;2737;52.386;9.980;2023-08-20T10:58:40;4.07;;;2.03;;
5428;SDS011;2737;52.386;9.980;2023-08-20T11:01:20;5.95;;;2.00;;
5428;SDS011;2737;52.386;9.980;2023-08-20T11:03:50;3.63;;;1.42;;
5428;SDS011;2737;52.386;9.980;2023-08-20T11:06:18;2.53;;;1.45;;
5428;SDS011;2737;52.386;9.980;2023-08-20T11:08:45;3.05;;;1.60;;
5428;SDS011;2737;52.386;9.980;2023-08-20T11:11:12;3.05;;;1.67;;
5428;SDS011;2737;52.386;9.980;2023-08-20T11:13:40;3.13;;;1.63;;
5428;SDS011;2737;52.386;9.980;2023-08-20T11:16:08;11.75;;;4.78;;
5428;SDS011;2737;52.386;9.980;2023-08-20T11:18:35;6.72;;;3.05;;
5428;SDS011;2737;52.386;9.980;2023-08-20T11:21:04;13.38;;;4.97;;
5428;SDS011;2737;52.386;9.980;2023-08-20T11:23:31;71.15;;;47.20;;
5428;SDS011;2737;52.386;9.980;2023-08-20T11:25:59;4.50;;;2.58;;
5428;SDS011;2737;52.386;9.980;2023-08-20T11:28:26;6.93;;;4.35;;
5428;SDS011;2737;52.386;9.980;2023-08-20T11:30:54;7.68;;;3.85;;
5428;SDS011;2737;52.386;9.980;2023-08-20T11:33:22;4.00;;;2.10;;
5428;SDS011;2737;52.386;9.980;2023-08-20T11:35:51;26.98;;;17.05;;
5428;SDS011;2737;52.386;9.980;2023-08-20T11:38:21;4.50;;;2.25;;
5428;SDS011;2737;52.386;9.980;2023-08-20T11:40:50;8.77;;;2.92;;
5428;SDS011;2737;52.386;9.980;2023-08-20T11:43:17;18.13;;;10.65;;
5428;SDS011;2737;52.386;9.980;2023-08-20T11:45:47;12.38;;;7.10;;
5428;SDS011;2737;52.386;9.980;2023-08-20T11:48:15;5.70;;;3.45;;
5428;SDS011;2737;52.386;9.980;2023-08-20T11:50:43;4.18;;;2.22;;
5428;SDS011;2737;52.386;9.980;2023-08-20T11:53:10;14.75;;;9.70;;
5428;SDS011;2737;52.386;9.980;2023-08-20T11:55:40;77.20;;;51.28;;
5428;SDS011;2737;52.386;9.980;2023-08-20T11:58:11;24.55;;;13.95;;
5428;SDS011;2737;52.386;9.980;2023-08-20T12:00:38;5.28;;;3.60;;
5428;SDS011;2737;52.386;9.980;2023-08-20T12:03:06;2.20;;;1.65;;
5428;SDS011;2737;52.386;9.980;2023-08-20T12:05:34;6.10;;;2.55;;
5428;SDS011;2737;52.386;9.980;2023-08-20T12:08:02;4.20;;;2.45;;
5428;SDS011;2737;52.386;9.980;2023-08-20T12:10:30;1.55;;;1.42;;
5428;SDS011;2737;52.386;9.980;2023-08-20T12:12:59;1.63;;;1.52;;
5428;SDS011;2737;52.386;9.980;2023-08-20T12:15:28;5.90;;;1.67;;
5428;SDS011;2737;52.386;9.980;2023-08-20T12:17:55;4.07;;;1.73;;
5428;SDS011;2737;52.386;9.980;2023-08-20T12:20:27;3.42;;;2.30;;
5428;SDS011;2737;52.386;9.980;2023-08-20T12:22:56;3.58;;;1.45;;
5428;SDS011;2737;52.386;9.980;2023-08-20T12:25:25;2.10;;;1.80;;
5428;SDS011;2737;52.386;9.980;2023-08-20T12:27:52;6.57;;;1.77;;
5428;SDS011;2737;52.386;9.980;2023-08-20T12:30:20;7.57;;;1.70;;
5428;SDS011;2737;52.386;9.980;2023-08-20T12:32:47;2.15;;;1.60;;
5428;SDS011;2737;52.386;9.980;2023-08-20T12:35:14;2.30;;;1.60;;
5428;SDS011;2737;52.386;9.980;2023-08-20T12:37:41;2.83;;;1.90;;
5428;SDS011;2737;52.386;9.980;2023-08-20T12:40:09;1.92;;;1.33;;
5428;SDS011;2737;52.386;9.980;2023-08-20T12:42:37;2.22;;;1.60;;
5428;SDS011;2737;52.386;9.980;2023-08-20T12:45:05;4.53;;;1.67;;
5428;SDS011;2737;52.386;9.980;2023-08-20T12:47:34;3.22;;;1.65;;
5428;SDS011;2737;52.386;9.980;2023-08-20T12:50:01;3.30;;;1.60;;
5428;SDS011;2737;52.386;9.980;2023-08-20T12:52:29;3.78;;;1.90;;
5428;SDS011;2737;52.386;9.980;2023-08-20T12:54:56;2.50;;;1.67;;
5428;SDS011;2737;52.386;9.980;2023-08-20T12:57:23;7.15;;;3.13;;
5428;SDS011;2737;52.386;9.980;2023-08-20T12:59:50;1.75;;;1.60;;
5428;SDS011;2737;52.386;9.980;2023-08-20T13:02:18;2.20;;;1.77;;
5428;SDS011;2737;52.386;9.980;2023-08-20T13:04:47;3.60;;;2.05;;
5428;SDS011;2737;52.386;9.980;2023-08-20T13:07:15;3.92;;;2.20;;
5428;SDS011;2737;52.386;9.980;2023-08-20T13:09:43;3.92;;;1.65;;
5428;SDS011;2737;52.386;9.980;2023-08-20T13:12:10;3.90;;;1.80;;
5428;SDS011;2737;52.386;9.980;2023-08-20T13:14:39;1.98;;;1.85;;
5428;SDS011;2737;52.386;9.980;2023-08-20T13:17:07;4.55;;;2.38;;
5428;SDS011;2737;52.386;9.980;2023-08-20T13:19:35;2.50;;;2.20;;
5428;SDS011;2737;52.386;9.980;2023-08-20T13:22:04;4.28;;;2.20;;
5428;SDS011;2737;52.386;9.980;2023-08-20T13:24:31;3.58;;;1.92;;
5428;SDS011;2737;52.386;9.980;2023-08-20T13:26:58;4.10;;;1.88;;
5428;SDS011;2737;52.386;9.980;2023-08-20T13:29:25;3.95;;;1.67;;
5428;SDS011;2737;52.386;9.980;2023-08-20T13:31:52;8.27;;;1.95;;
5428;SDS011;2737;52.386;9.980;2023-08-20T13:34:19;3.80;;;2.00;;
5428;SDS011;2737;52.386;9.980;2023-08-20T13:36:46;3.92;;;1.95;;
5428;SDS011;2737;52.386;9.980;2023-08-20T13:39:14;2.45;;;1.77;;
5428;SDS011;2737;52.386;9.980;2023-08-20T13:41:43;4.05;;;1.88;;
5428;SDS011;2737;52.386;9.980;2023-08-20T13:44:10;9.82;;;1.80;;
5428;SDS011;2737;52.386;9.980;2023-08-20T13:46:37;2.70;;;1.77;;
5428;SDS011;2737;52.386;9.980;2023-08-20T13:49:04;3.75;;;1.60;;
5428;SDS011;2737;52.386;9.980;2023-08-20T13:51:31;2.70;;;2.15;;
5428;SDS011;2737;52.386;9.980;2023-08-20T13:53:58;4.07;;;2.03;;
5428;SDS011;2737;52.386;9.980;2023-08-20T13:56:26;3.92;;;2.08;;
5428;SDS011;2737;52.386;9.980;2023-08-20T13:58:53;4.97;;;2.20;;
5428;SDS011;2737;52.386;9.980;2023-08-20T14:01:20;3.72;;;2.13;;
5428;SDS011;2737;52.386;9.980;2023-08-20T14:03:48;6.55;;;2.90;;
5428;SDS011;2737;52.386;9.980;2023-08-20T14:06:15;3.45;;;2.35;;
5428;SDS011;2737;52.386;9.980;2023-08-20T14:08:42;2.95;;;2.40;;
5428;SDS011;2737;52.386;9.980;2023-08-20T14:11:09;5.22;;;2.40;;
5428;SDS011;2737;52.386;9.980;2023-08-20T14:13:38;3.38;;;2.25;;
5428;SDS011;2737;52.386;9.980;2023-08-20T14:16:07;4.90;;;2.53;;
5428;SDS011;2737;52.386;9.980;2023-08-20T14:18:34;2.30;;;2.10;;
5428;SDS011;2737;52.386;9.980;2023-08-20T14:21:01;3.22;;;2.17;;
5428;SDS011;2737;52.386;9.980;2023-08-20T14:23:29;5.18;;;2.83;;
5428;SDS011;2737;52.386;9.980;2023-08-20T14:25:56;3.53;;;2.55;;
5428;SDS011;2737;52.386;9.980;2023-08-20T14:28:23;6.05;;;2.38;;
5428;SDS011;2737;52.386;9.980;2023-08-20T14:30:51;4.93;;;2.47;;
5428;SDS011;2737;52.386;9.980;2023-08-20T14:33:20;4.78;;;2.53;;
5428;SDS011;2737;52.386;9.980;2023-08-20T14:35:47;4.93;;;2.83;;
5428;SDS011;2737;52.386;9.980;2023-08-20T14:38:14;6.80;;;2.83;;
5428;SDS011;2737;52.386;9.980;2023-08-20T14:40:41;3.65;;;2.30;;
5428;SDS011;2737;52.386;9.980;2023-08-20T14:43:08;3.42;;;2.70;;
5428;SDS011;2737;52.386;9.980;2023-08-20T14:45:35;4.40;;;2.85;;
5428;SDS011;2737;52.386;9.980;2023-08-20T14:48:04;4.60;;;2.60;;
5428;SDS011;2737;52.386;9.980;2023-08-20T14:50:31;5.85;;;2.30;;
5428;SDS011;2737;52.386;9.980;2023-08-20T14:52:58;2.85;;;2.38;;
5428;SDS011;2737;52.386;9.980;2023-08-20T14:55:25;2.85;;;2.40;;
5428;SDS011;2737;52.386;9.980;2023-08-20T14:57:52;4.72;;;2.58;;
5428;SDS011;2737;52.386;9.980;2023-08-20T15:00:19;3.53;;;3.05;;
5428;SDS011;2737;52.386;9.980;2023-08-20T15:02:49;6.00;;;2.53;;
5428;SDS011;2737;52.386;9.980;2023-08-20T15:05:17;8.77;;;2.55;;
5428;SDS011;2737;52.386;9.980;2023-08-20T15:07:44;3.92;;;2.40;;
5428;SDS011;2737;52.386;9.980;2023-08-20T15:10:11;3.75;;;2.88;;
5428;SDS011;2737;52.386;9.980;2023-08-20T15:12:39;8.50;;;3.08;;
5428;SDS011;2737;52.386;9.980;2023-08-20T15:15:06;3.47;;;2.78;;